createdAt,value
2023-11-02T00:01:36.311Z,6.30
2023-11-02T00:04:03.254Z,6.40
2023-11-02T00:06:34.912Z,6.20
2023-11-02T00:09:05.559Z,5.50
2023-11-02T00:11:55.969Z,5.60
2023-11-02T00:14:23.750Z,5.90
2023-11-02T00:16:50.866Z,5.60
2023-11-02T00:19:31.432Z,6.00
2023-11-02T00:21:59.261Z,6.00
2023-11-02T00:24:27.533Z,6.60
2023-11-02T00:26:55.980Z,5.50
2023-11-02T00:29:22.911Z,5.20
2023-11-02T00:31:49.730Z,6.20
2023-11-02T00:34:16.655Z,6.70
2023-11-02T00:36:43.613Z,7.00
2023-11-02T00:39:11.156Z,7.10
2023-11-02T00:41:38.463Z,6.90
2023-11-02T00:44:06.217Z,6.20
2023-11-02T00:46:34.622Z,6.10
2023-11-02T00:49:02.332Z,6.50
2023-11-02T00:51:31.560Z,6.60
2023-11-02T00:54:00.011Z,6.00
2023-11-02T00:56:36.665Z,6.00
2023-11-02T00:59:04.437Z,5.90
2023-11-02T01:01:32.010Z,4.40
2023-11-02T01:04:04.029Z,4.60
2023-11-02T01:06:31.785Z,6.40
2023-11-02T01:09:01.304Z,7.00
2023-11-02T01:11:30.990Z,5.80
2023-11-02T01:13:58.344Z,5.30
2023-11-02T01:16:25.681Z,7.30
2023-11-02T01:18:52.592Z,6.90
2023-11-02T01:21:19.457Z,6.40
2023-11-02T01:23:47.353Z,5.20
2023-11-02T01:26:49.055Z,5.10
2023-11-02T01:29:15.881Z,5.70
2023-11-02T01:31:42.881Z,6.00
2023-11-02T01:34:12.134Z,6.60
2023-11-02T01:36:40.013Z,6.40
2023-11-02T01:39:15.805Z,9.70
2023-11-02T01:41:45.980Z,7.70
2023-11-02T01:44:47.121Z,7.00
2023-11-02T01:47:30.401Z,6.30
2023-11-02T01:50:09.881Z,6.60
2023-11-02T01:52:55.629Z,8.10
2023-11-02T01:55:47.663Z,6.60
2023-11-02T01:58:33.644Z,6.00
2023-11-02T02:01:12.953Z,5.40
2023-11-02T02:04:09.156Z,4.90
2023-11-02T02:06:40.627Z,5.00
2023-11-02T02:09:14.478Z,4.80
2023-11-02T02:11:51.838Z,4.90
2023-11-02T02:14:57.194Z,4.10
2023-11-02T02:17:29.317Z,5.00
2023-11-02T02:19:58.676Z,4.60
2023-11-02T02:22:27.138Z,4.00
2023-11-02T02:24:57.371Z,4.20
2023-11-02T02:27:56.443Z,4.50
2023-11-02T02:30:26.135Z,4.20
2023-11-02T02:33:05.163Z,3.70
2023-11-02T02:35:55.182Z,3.80
2023-11-02T02:38:29.484Z,2.90
2023-11-02T02:41:06.332Z,3.10
2023-11-02T02:43:33.147Z,4.00
2023-11-02T02:46:00.040Z,3.70
2023-11-02T02:48:26.972Z,3.30
2023-11-02T02:50:58.886Z,3.80
2023-11-02T02:53:27.736Z,5.10
2023-11-02T02:55:57.239Z,5.20
2023-11-02T02:58:27.592Z,5.30
2023-11-02T03:00:54.816Z,5.50
2023-11-02T03:03:22.870Z,5.70
2023-11-02T03:05:49.730Z,5.20
2023-11-02T03:08:17.117Z,5.30
2023-11-02T03:10:44.216Z,6.70
2023-11-02T03:13:13.323Z,9.10
2023-11-02T03:15:42.314Z,8.80
2023-11-02T03:18:11.177Z,8.60
2023-11-02T03:20:38.484Z,9.00
2023-11-02T03:23:31.405Z,8.80
2023-11-02T03:26:16.270Z,11.00
2023-11-02T03:29:00.674Z,10.60
2023-11-02T03:31:27.657Z,7.90
2023-11-02T03:34:17.866Z,8.20
2023-11-02T03:36:48.526Z,8.20
2023-11-02T03:39:31.801Z,6.50
2023-11-02T03:42:09.383Z,4.80
2023-11-02T03:44:57.787Z,4.90
2023-11-02T03:47:47.820Z,4.10
2023-11-02T03:50:28.599Z,4.10
2023-11-02T03:55:45.697Z,3.40
2023-11-02T03:58:23.059Z,3.60
2023-11-02T04:00:57.879Z,2.90
2023-11-02T04:03:24.747Z,2.90
2023-11-02T04:05:51.628Z,2.90
2023-11-02T04:08:19.631Z,3.10
2023-11-02T04:11:02.039Z,3.10
2023-11-02T04:13:31.674Z,4.20
2023-11-02T04:16:00.964Z,4.40
2023-11-02T04:18:27.821Z,4.00
2023-11-02T04:20:55.217Z,5.30
2023-11-02T04:23:22.340Z,5.10
2023-11-02T04:25:51.442Z,5.00
2023-11-02T04:28:18.741Z,7.20
2023-11-02T04:30:45.574Z,6.70
2023-11-02T04:33:14.142Z,6.60
2023-11-02T04:35:43.948Z,5.70
2023-11-02T04:38:11.080Z,14.00
2023-11-02T04:40:40.335Z,9.00
2023-11-02T04:43:07.335Z,9.60
2023-11-02T04:45:35.610Z,8.00
2023-11-02T04:48:03.976Z,8.70
2023-11-02T04:50:31.122Z,11.80
2023-11-02T04:52:57.976Z,7.50
2023-11-02T04:55:24.803Z,4.70
2023-11-02T04:57:51.654Z,5.70
2023-11-02T05:00:19.049Z,8.90
2023-11-02T05:02:46.085Z,8.30
2023-11-02T05:05:12.889Z,8.90
2023-11-02T05:07:39.711Z,6.50
2023-11-02T05:10:07.301Z,5.70
2023-11-02T05:12:34.462Z,6.30
2023-11-02T05:15:01.397Z,7.20
2023-11-02T05:17:28.251Z,8.00
2023-11-02T05:19:55.108Z,7.10
2023-11-02T05:22:22.052Z,10.40
2023-11-02T05:24:48.883Z,7.80
2023-11-02T05:27:15.909Z,6.10
2023-11-02T05:29:42.925Z,7.70
2023-11-02T05:32:10.420Z,11.30
2023-11-02T05:34:37.397Z,9.30
2023-11-02T05:37:05.709Z,11.90
2023-11-02T05:39:32.596Z,7.90
2023-11-02T05:41:59.574Z,5.90
2023-11-02T05:44:26.467Z,6.50
2023-11-02T05:46:55.985Z,7.10
2023-11-02T05:49:23.008Z,13.30
2023-11-02T05:51:50.033Z,12.00
2023-11-02T05:54:16.959Z,6.90
2023-11-02T05:56:43.829Z,6.50
2023-11-02T05:59:12.068Z,6.80
2023-11-02T06:01:39.183Z,5.30
2023-11-02T06:04:06.313Z,5.50
2023-11-02T06:06:33.353Z,6.30
2023-11-02T06:09:00.438Z,7.70
2023-11-02T06:11:27.644Z,9.10
2023-11-02T06:13:56.933Z,8.90
2023-11-02T06:16:24.624Z,10.90
2023-11-02T06:18:52.440Z,9.40
2023-11-02T06:21:22.696Z,7.20
2023-11-02T06:23:49.624Z,8.30
2023-11-02T06:26:19.591Z,7.40
2023-11-02T06:28:49.330Z,7.60
2023-11-02T06:31:16.225Z,8.30
2023-11-02T06:33:43.679Z,7.50
2023-11-02T06:36:10.755Z,6.40
2023-11-02T06:38:37.613Z,6.80
2023-11-02T06:41:04.841Z,6.80
2023-11-02T06:43:31.718Z,7.90
2023-11-02T06:45:58.596Z,7.20
2023-11-02T06:48:25.831Z,9.10
2023-11-02T06:50:52.851Z,9.50
2023-11-02T06:53:19.634Z,6.40
2023-11-02T06:55:46.604Z,5.80
2023-11-02T06:58:13.393Z,5.90
2023-11-02T07:00:40.257Z,6.00
2023-11-02T07:03:07.246Z,7.80
2023-11-02T07:05:36.991Z,7.20
2023-11-02T07:08:04.297Z,7.50
2023-11-02T07:10:32.360Z,7.40
2023-11-02T07:13:00.555Z,9.60
2023-11-02T07:15:29.680Z,11.90
2023-11-02T07:17:56.629Z,10.80
2023-11-02T07:20:23.487Z,10.50
2023-11-02T07:22:50.539Z,11.10
2023-11-02T07:25:17.375Z,10.60
2023-11-02T07:27:44.694Z,8.50
2023-11-02T07:30:12.501Z,8.00
2023-11-02T07:32:39.695Z,7.40
2023-11-02T07:35:06.923Z,7.60
2023-11-02T07:37:33.784Z,5.60
2023-11-02T07:40:00.609Z,5.20
2023-11-02T07:42:27.523Z,5.10
2023-11-02T07:44:57.059Z,4.90
2023-11-02T07:47:23.832Z,4.60
2023-11-02T07:49:50.718Z,5.40
2023-11-02T07:52:17.580Z,4.90
2023-11-02T07:54:44.625Z,4.60
2023-11-02T07:57:12.286Z,4.80
2023-11-02T07:59:39.412Z,4.70
2023-11-02T08:02:06.738Z,4.40
2023-11-02T08:04:34.428Z,4.80
2023-11-02T08:07:02.249Z,5.00
2023-11-02T08:09:31.245Z,5.50
2023-11-02T08:11:58.477Z,6.10
2023-11-02T08:14:25.392Z,6.20
2023-11-02T08:16:52.467Z,7.10
2023-11-02T08:19:19.428Z,5.40
2023-11-02T08:21:46.345Z,4.40
2023-11-02T08:24:13.839Z,3.50
2023-11-02T08:26:40.972Z,3.60
2023-11-02T08:29:08.040Z,3.60
2023-11-02T08:31:35.010Z,3.50
2023-11-02T08:34:03.700Z,3.20
2023-11-02T08:36:33.011Z,4.90
2023-11-02T08:39:00.461Z,5.70
2023-11-02T08:41:28.653Z,4.90
2023-11-02T08:43:58.107Z,4.00
2023-11-02T08:46:25.074Z,2.80
2023-11-02T08:48:56.200Z,2.60
2023-11-02T08:51:23.830Z,2.60
2023-11-02T08:53:51.756Z,2.60
2023-11-02T08:56:18.649Z,4.00
2023-11-02T08:58:54.006Z,3.30
2023-11-02T09:01:26.770Z,2.90
2023-11-02T09:03:54.982Z,3.50
2023-11-02T09:06:22.841Z,3.50
2023-11-02T09:08:50.808Z,4.10
2023-11-02T09:11:18.713Z,5.10
2023-11-02T09:13:45.914Z,2.70
2023-11-02T09:16:12.795Z,2.40
2023-11-02T09:18:39.768Z,2.50
2023-11-02T09:21:08.533Z,2.90
2023-11-02T09:23:36.003Z,5.70
2023-11-02T09:26:03.681Z,2.70
2023-11-02T09:28:31.076Z,3.00
2023-11-02T09:30:57.959Z,12.40
2023-11-02T09:33:24.945Z,9.10
2023-11-02T09:35:55.109Z,6.30
2023-11-02T09:38:22.296Z,4.70
2023-11-02T09:40:50.008Z,3.10
2023-11-02T09:43:17.208Z,27.70
2023-11-02T09:45:44.385Z,5.70
2023-11-02T09:48:11.653Z,3.70
2023-11-02T09:50:38.658Z,2.90
2023-11-02T09:53:06.689Z,3.00
2023-11-02T09:55:33.935Z,2.20
2023-11-02T09:58:01.034Z,5.10
2023-11-02T10:00:28.124Z,13.50
2023-11-02T10:02:55.170Z,16.20
2023-11-02T10:05:24.421Z,16.20
2023-11-02T10:07:51.520Z,18.30
2023-11-02T10:10:20.144Z,9.50
2023-11-02T10:12:47.253Z,4.90
2023-11-02T10:15:18.402Z,6.90
2023-11-02T10:17:46.292Z,45.80
2023-11-02T10:20:17.092Z,18.30
2023-11-02T10:22:45.859Z,27.30
2023-11-02T10:25:15.828Z,26.50
2023-11-02T10:27:43.427Z,17.10
2023-11-02T10:30:12.050Z,12.00
2023-11-02T10:32:39.231Z,17.50
2023-11-02T10:35:07.153Z,9.70
2023-11-02T10:37:37.423Z,16.00
2023-11-02T10:40:05.952Z,7.00
2023-11-02T10:42:33.202Z,5.20
2023-11-02T10:45:00.969Z,2.80
2023-11-02T10:47:31.411Z,10.70
2023-11-02T10:50:00.416Z,7.00
2023-11-02T10:52:43.547Z,3.30
2023-11-02T10:55:18.781Z,3.80
2023-11-02T10:57:46.152Z,27.90
2023-11-02T11:00:14.697Z,14.10
2023-11-02T11:02:41.744Z,34.30
2023-11-02T11:05:11.067Z,11.90
2023-11-02T11:07:38.446Z,10.10
2023-11-02T11:10:08.213Z,12.80
2023-11-02T11:12:37.483Z,3.40
2023-11-02T11:15:04.866Z,2.30
2023-11-02T11:17:32.020Z,8.40
2023-11-02T11:19:58.901Z,8.30
2023-11-02T11:22:29.116Z,5.00
2023-11-02T11:24:57.063Z,4.10
2023-11-02T11:27:44.802Z,4.40
2023-11-02T11:30:20.946Z,9.40
2023-11-02T11:32:49.247Z,5.20
2023-11-02T11:35:18.655Z,5.30
2023-11-02T11:37:53.636Z,3.20
2023-11-02T11:40:22.016Z,3.30
2023-11-02T11:42:55.642Z,3.60
2023-11-02T11:45:38.907Z,2.30
2023-11-02T11:48:08.116Z,2.50
2023-11-02T11:50:41.829Z,4.10
2023-11-02T11:53:23.107Z,8.90
2023-11-02T11:55:54.131Z,4.30
2023-11-02T11:58:36.548Z,1.90
2023-11-02T12:01:03.460Z,1.50
2023-11-02T12:03:36.671Z,2.20
2023-11-02T12:06:08.137Z,3.70
2023-11-02T12:08:45.637Z,3.90
2023-11-02T12:11:15.581Z,3.70
2023-11-02T12:15:21.318Z,5.10
2023-11-02T12:17:55.832Z,3.60
2023-11-02T12:20:33.984Z,4.00
2023-11-02T12:23:01.250Z,2.20
2023-11-02T12:25:28.288Z,2.50
2023-11-02T12:27:58.716Z,1.90
2023-11-02T12:30:25.933Z,2.60
2023-11-02T12:32:53.647Z,2.20
2023-11-02T12:35:22.739Z,2.90
2023-11-02T12:38:08.830Z,4.30
2023-11-02T12:40:51.830Z,2.50
2023-11-02T12:43:25.332Z,2.10
2023-11-02T12:46:01.335Z,3.10
2023-11-02T12:48:33.875Z,3.70
2023-11-02T12:51:17.717Z,5.90
2023-11-02T12:53:44.988Z,3.10
2023-11-02T12:56:13.219Z,2.30
2023-11-02T12:58:40.765Z,3.90
2023-11-02T13:01:07.804Z,3.90
2023-11-02T13:03:34.747Z,2.90
2023-11-02T13:06:01.661Z,4.80
2023-11-02T13:08:28.509Z,5.60
2023-11-02T13:10:55.759Z,3.90
2023-11-02T13:13:23.823Z,4.20
2023-11-02T13:15:52.869Z,3.90
2023-11-02T13:18:20.156Z,3.50
2023-11-02T13:20:49.464Z,3.30
2023-11-02T13:23:16.365Z,4.10
2023-11-02T13:25:43.286Z,7.80
2023-11-02T13:28:12.920Z,16.60
2023-11-02T13:30:41.482Z,8.60
2023-11-02T13:33:11.965Z,4.10
2023-11-02T13:35:38.856Z,7.90
2023-11-02T13:38:06.619Z,11.80
2023-11-02T13:40:33.530Z,6.20
2023-11-02T13:43:02.155Z,5.70
2023-11-02T13:45:30.622Z,8.10
2023-11-02T13:47:58.656Z,5.80
2023-11-02T13:50:25.556Z,7.50
2023-11-02T13:52:52.457Z,11.60
2023-11-02T13:55:19.514Z,7.60
2023-11-02T13:57:46.786Z,6.40
2023-11-02T14:00:16.933Z,6.10
2023-11-02T14:02:44.400Z,7.00
2023-11-02T14:05:12.499Z,6.50
2023-11-02T14:07:39.760Z,6.20
2023-11-02T14:10:07.526Z,7.80
2023-11-02T14:12:34.856Z,8.60
2023-11-02T14:15:01.964Z,11.60
2023-11-02T14:17:29.152Z,9.30
2023-11-02T14:19:57.247Z,8.80
2023-11-02T14:22:24.393Z,11.80
2023-11-02T14:24:54.441Z,13.30
2023-11-02T14:27:25.073Z,18.00
2023-11-02T14:29:52.227Z,11.70
2023-11-02T14:32:19.378Z,10.90
2023-11-02T14:34:46.393Z,10.40
2023-11-02T14:37:13.528Z,14.10
2023-11-02T14:39:41.311Z,17.70
2023-11-02T14:42:09.619Z,25.90
2023-11-02T14:44:37.105Z,24.90
2023-11-02T14:47:05.379Z,17.10
2023-11-02T14:49:36.002Z,16.10
2023-11-02T14:52:07.982Z,21.10
2023-11-02T14:54:46.342Z,24.40
2023-11-02T14:57:19.793Z,26.80
2023-11-02T14:59:46.968Z,54.60
2023-11-02T15:02:13.965Z,30.70
2023-11-02T15:04:41.331Z,36.60
2023-11-02T15:07:08.372Z,88.40
2023-11-02T15:09:35.372Z,39.80
2023-11-02T15:12:02.263Z,35.10
2023-11-02T15:14:29.359Z,32.00
2023-11-02T15:16:56.294Z,28.20
2023-11-02T15:19:23.158Z,28.80
2023-11-02T15:21:50.254Z,33.70
2023-11-02T15:24:17.339Z,31.80
2023-11-02T15:26:44.212Z,32.50
2023-11-02T15:29:12.741Z,32.30
2023-11-02T15:31:39.639Z,30.60
2023-11-02T15:34:06.785Z,29.70
2023-11-02T15:36:38.515Z,26.10
2023-11-02T15:39:11.523Z,24.50
2023-11-02T15:41:38.744Z,42.30
2023-11-02T15:44:06.037Z,43.70
2023-11-02T15:46:33.369Z,33.70
2023-11-02T15:49:00.366Z,31.60
2023-11-02T15:51:27.401Z,31.60
2023-11-02T15:53:54.455Z,29.50
2023-11-02T15:56:21.395Z,31.70
2023-11-02T15:58:48.296Z,46.50
2023-11-02T16:01:25.316Z,43.90
2023-11-02T16:03:54.232Z,43.20
2023-11-02T16:06:22.570Z,35.50
2023-11-02T16:08:49.574Z,34.30
2023-11-02T16:11:16.996Z,26.00
2023-11-02T16:13:46.870Z,22.30
2023-11-02T16:16:13.733Z,30.00
2023-11-02T16:18:40.924Z,48.70
2023-11-02T16:21:08.086Z,60.60
2023-11-02T16:23:34.970Z,34.60
2023-11-02T16:26:04.989Z,31.70
2023-11-02T16:28:36.005Z,28.90
2023-11-02T16:33:30.031Z,17.90
2023-11-02T16:35:57.003Z,19.10
2023-11-02T16:38:24.697Z,22.30
2023-11-02T16:40:52.151Z,32.40
2023-11-02T16:43:19.365Z,42.40
2023-11-02T16:45:47.973Z,48.40
2023-11-02T16:48:14.992Z,52.60
2023-11-02T16:50:41.983Z,52.40
2023-11-02T16:53:08.854Z,49.60
2023-11-02T16:55:37.987Z,38.40
2023-11-02T16:58:04.860Z,31.70
2023-11-02T17:00:31.838Z,37.70
2023-11-02T17:02:58.763Z,43.40
2023-11-02T17:05:25.660Z,43.90
2023-11-02T17:07:52.557Z,44.90
2023-11-02T17:10:19.659Z,41.60
2023-11-02T17:12:48.146Z,39.80
2023-11-02T17:15:15.129Z,34.30
2023-11-02T17:17:42.122Z,22.30
2023-11-02T17:20:09.698Z,21.20
2023-11-02T17:22:37.904Z,20.40
2023-11-02T17:25:05.845Z,26.60
2023-11-02T17:27:33.968Z,25.20
2023-11-02T17:30:00.894Z,32.10
2023-11-02T17:32:29.200Z,44.70
2023-11-02T17:34:56.167Z,42.80
2023-11-02T17:37:23.393Z,36.40
2023-11-02T17:39:50.300Z,34.00
2023-11-02T17:42:20.459Z,29.30
2023-11-02T17:44:52.442Z,26.50
2023-11-02T17:47:19.338Z,35.20
2023-11-02T17:49:46.762Z,28.50
2023-11-02T17:52:14.089Z,110.60
2023-11-02T17:54:42.829Z,49.00
2023-11-02T17:57:09.763Z,33.30
2023-11-02T17:59:36.670Z,29.00
2023-11-02T18:02:03.740Z,21.00
2023-11-02T18:04:30.988Z,21.90
2023-11-02T18:06:57.956Z,20.80
2023-11-02T18:09:25.125Z,22.00
2023-11-02T18:11:52.921Z,28.80
2023-11-02T18:14:19.919Z,25.80
2023-11-02T18:16:46.863Z,27.30
2023-11-02T18:19:13.782Z,24.40
2023-11-02T18:21:40.712Z,19.30
2023-11-02T18:24:08.160Z,23.70
2023-11-02T18:26:35.059Z,45.70
2023-11-02T18:29:10.555Z,43.30
2023-11-02T18:31:38.052Z,43.80
2023-11-02T18:34:06.052Z,24.60
2023-11-02T18:36:33.633Z,24.40
2023-11-02T18:39:01.272Z,22.20
2023-11-02T18:41:28.187Z,18.70
2023-11-02T18:43:55.162Z,17.20
2023-11-02T18:46:22.379Z,16.00
2023-11-02T18:48:50.026Z,15.60
2023-11-02T18:51:17.095Z,15.70
2023-11-02T18:53:45.717Z,17.20
2023-11-02T18:56:12.561Z,21.20
2023-11-02T18:58:40.413Z,20.60
2023-11-02T19:01:07.949Z,18.10
2023-11-02T19:03:35.877Z,13.70
2023-11-02T19:06:03.353Z,13.60
2023-11-02T19:08:30.993Z,18.20
2023-11-02T19:11:01.120Z,15.30
2023-11-02T19:13:28.547Z,15.90
2023-11-02T19:15:55.875Z,15.90
2023-11-02T19:18:25.092Z,15.60
2023-11-02T19:20:55.142Z,16.70
2023-11-02T19:23:22.017Z,17.20
2023-11-02T19:25:50.205Z,14.40
2023-11-02T19:28:17.594Z,14.10
2023-11-02T19:30:44.827Z,33.00
2023-11-02T19:33:11.678Z,38.50
2023-11-02T19:35:38.518Z,25.20
2023-11-02T19:38:05.474Z,26.20
2023-11-02T19:40:32.938Z,33.10
2023-11-02T19:43:00.141Z,48.90
2023-11-02T19:45:28.201Z,40.40
2023-11-02T19:47:55.486Z,35.00
2023-11-02T19:50:22.649Z,34.50
2023-11-02T19:52:49.659Z,27.90
2023-11-02T19:55:16.672Z,26.50
2023-11-02T19:57:44.128Z,24.30
2023-11-02T20:00:15.204Z,24.30
2023-11-02T20:02:45.447Z,19.20
2023-11-02T20:05:13.163Z,19.80
2023-11-02T20:07:40.254Z,19.60
2023-11-02T20:10:08.435Z,20.60
2023-11-02T20:12:38.725Z,20.30
2023-11-02T20:15:08.068Z,19.70
2023-11-02T20:17:38.385Z,22.80
2023-11-02T20:20:06.080Z,22.80
2023-11-02T20:22:33.625Z,18.20
2023-11-02T20:25:00.626Z,17.20
2023-11-02T20:27:27.749Z,20.30
2023-11-02T20:29:54.721Z,24.30
2023-11-02T20:32:21.581Z,25.60
2023-11-02T20:34:48.603Z,19.50
2023-11-02T20:37:15.657Z,18.80
2023-11-02T20:39:42.549Z,18.90
2023-11-02T20:42:09.440Z,14.00
2023-11-02T20:44:36.352Z,15.30
2023-11-02T20:47:06.324Z,21.50
2023-11-02T20:49:33.183Z,33.00
2023-11-02T20:52:00.240Z,37.20
2023-11-02T20:54:27.511Z,43.30
2023-11-02T20:56:54.725Z,34.00
2023-11-02T20:59:21.660Z,42.80
2023-11-02T21:01:48.579Z,24.30
2023-11-02T21:04:18.414Z,20.80
2023-11-02T21:06:54.748Z,19.30
2023-11-02T21:09:27.208Z,18.90
2023-11-02T21:11:54.506Z,18.60
2023-11-02T21:14:21.353Z,18.70
2023-11-02T21:16:48.282Z,20.90
2023-11-02T21:19:15.865Z,20.40
2023-11-02T21:21:43.434Z,15.80
2023-11-02T21:24:10.437Z,20.70
2023-11-02T21:26:37.552Z,17.70
2023-11-02T21:29:04.354Z,17.70
2023-11-02T21:31:31.335Z,17.90
2023-11-02T21:33:58.241Z,21.10
2023-11-02T21:36:26.978Z,23.20
2023-11-02T21:38:54.031Z,22.20
2023-11-02T21:41:22.679Z,23.20
2023-11-02T21:43:51.029Z,19.80
2023-11-02T21:46:18.711Z,22.40
2023-11-02T21:48:46.386Z,24.70
2023-11-02T21:51:13.312Z,21.40
2023-11-02T21:53:40.140Z,19.70
2023-11-02T21:56:07.357Z,14.70
2023-11-02T21:58:34.455Z,19.20
2023-11-02T22:01:01.358Z,21.20
2023-11-02T22:03:28.722Z,22.00
2023-11-02T22:05:55.578Z,18.80
2023-11-02T22:08:23.241Z,21.20
2023-11-02T22:10:50.056Z,18.90
2023-11-02T22:13:17.094Z,13.40
2023-11-02T22:15:44.006Z,14.00
2023-11-02T22:18:10.995Z,15.90
2023-11-02T22:20:37.858Z,15.70
2023-11-02T22:23:04.759Z,20.90
2023-11-02T22:25:31.622Z,27.20
2023-11-02T22:27:58.685Z,31.80
2023-11-02T22:30:26.076Z,21.30
2023-11-02T22:32:53.380Z,19.90
2023-11-02T22:35:20.196Z,17.70
2023-11-02T22:37:47.410Z,17.70
2023-11-02T22:40:14.575Z,16.50
2023-11-02T22:42:41.585Z,18.30
2023-11-02T22:45:11.108Z,19.50
2023-11-02T22:47:38.033Z,16.70
2023-11-02T22:50:05.192Z,14.80
2023-11-02T22:52:34.595Z,16.20
2023-11-02T22:55:01.958Z,15.20
2023-11-02T22:57:29.233Z,16.00
2023-11-02T22:59:56.221Z,15.50
2023-11-02T23:02:23.021Z,16.50
2023-11-02T23:04:49.937Z,13.20
2023-11-02T23:07:19.223Z,13.30
2023-11-02T23:09:46.059Z,14.50
2023-11-02T23:12:12.967Z,15.80
2023-11-02T23:14:40.466Z,17.10
2023-11-02T23:17:07.403Z,17.70
2023-11-02T23:19:34.437Z,36.80
2023-11-02T23:22:01.310Z,28.70
2023-11-02T23:24:28.383Z,43.70
2023-11-02T23:26:58.130Z,44.00
2023-11-02T23:29:25.178Z,36.00
2023-11-02T23:31:52.865Z,32.40
2023-11-02T23:34:19.892Z,26.20
2023-11-02T23:36:46.901Z,26.20
2023-11-02T23:39:13.713Z,23.60
2023-11-02T23:41:41.779Z,20.50
2023-11-02T23:44:08.582Z,27.60
2023-11-02T23:46:35.454Z,26.90
2023-11-02T23:49:02.541Z,22.90
2023-11-02T23:51:29.951Z,20.20
2023-11-02T23:53:56.785Z,22.20
2023-11-02T23:56:23.605Z,17.60
2023-11-02T23:58:50.423Z,17.60
